createdAt,value
2023-03-04T00:00:20.841Z,11.10
2023-03-04T00:02:48.190Z,9.70
2023-03-04T00:05:14.990Z,8.85
2023-03-04T00:07:41.747Z,10.80
2023-03-04T00:10:09.245Z,10.05
2023-03-04T00:12:36.015Z,9.98
2023-03-04T00:15:03.325Z,11.18
2023-03-04T00:17:31.538Z,13.13
2023-03-04T00:19:58.958Z,12.27
2023-03-04T00:22:26.175Z,12.25
2023-03-04T00:24:53.432Z,10.48
2023-03-04T00:27:20.217Z,10.93
2023-03-04T00:29:47.084Z,9.40
2023-03-04T00:32:13.967Z,10.82
2023-03-04T00:34:43.270Z,10.07
2023-03-04T00:37:11.105Z,13.00
2023-03-04T00:39:38.694Z,9.60
2023-03-04T00:42:06.625Z,10.65
2023-03-04T00:44:33.922Z,10.23
2023-03-04T00:47:01.130Z,11.07
2023-03-04T00:49:27.909Z,11.77
2023-03-04T00:51:54.711Z,10.88
2023-03-04T00:54:21.910Z,15.88
2023-03-04T00:56:49.157Z,11.85
2023-03-04T00:59:16.419Z,11.05
2023-03-04T01:01:43.651Z,9.30
2023-03-04T01:04:10.486Z,12.07
2023-03-04T01:06:37.611Z,11.65
2023-03-04T01:09:06.008Z,8.27
2023-03-04T01:11:32.779Z,11.98
2023-03-04T01:13:59.623Z,11.90
2023-03-04T01:16:26.908Z,11.82
2023-03-04T01:18:54.442Z,10.15
2023-03-04T01:21:21.801Z,10.15
2023-03-04T01:23:49.097Z,9.35
2023-03-04T01:26:15.874Z,11.05
2023-03-04T01:28:43.090Z,11.30
2023-03-04T01:31:09.999Z,15.30
2023-03-04T01:33:37.384Z,10.35
2023-03-04T01:36:04.553Z,15.07
2023-03-04T01:38:31.557Z,10.95
2023-03-04T01:40:58.806Z,9.23
2023-03-04T01:43:28.361Z,11.23
2023-03-04T01:45:56.434Z,10.52
2023-03-04T01:48:31.327Z,11.07
2023-03-04T01:50:59.527Z,12.23
2023-03-04T01:53:28.746Z,11.75
2023-03-04T01:56:00.906Z,10.93
2023-03-04T01:58:31.774Z,9.90
2023-03-04T02:00:59.357Z,10.70
2023-03-04T02:03:26.922Z,11.98
2023-03-04T02:05:55.522Z,10.68
2023-03-04T02:08:25.051Z,11.43
2023-03-04T02:10:53.532Z,14.70
2023-03-04T02:13:21.156Z,13.90
2023-03-04T02:15:48.577Z,13.38
2023-03-04T02:18:24.173Z,12.82
2023-03-04T02:21:08.718Z,11.63
2023-03-04T02:23:53.197Z,13.35
2023-03-04T02:26:22.977Z,10.80
2023-03-04T02:28:53.602Z,13.85
2023-03-04T02:31:32.960Z,16.50
2023-03-04T02:34:06.461Z,13.98
2023-03-04T02:36:34.555Z,12.25
2023-03-04T02:39:11.777Z,13.05
2023-03-04T02:41:39.059Z,11.35
2023-03-04T02:44:20.402Z,14.32
2023-03-04T02:46:48.187Z,16.88
2023-03-04T02:49:15.864Z,14.88
2023-03-04T02:51:43.125Z,14.40
2023-03-04T02:54:21.182Z,14.43
2023-03-04T02:56:50.280Z,14.57
2023-03-04T02:59:18.266Z,12.90
2023-03-04T03:01:46.164Z,15.80
2023-03-04T03:04:13.788Z,11.52
2023-03-04T03:06:42.535Z,13.20
2023-03-04T03:09:09.880Z,13.55
2023-03-04T03:11:37.174Z,12.93
2023-03-04T03:14:05.223Z,15.57
2023-03-04T03:16:32.595Z,14.25
2023-03-04T03:18:59.474Z,12.57
2023-03-04T03:21:26.286Z,15.10
2023-03-04T03:23:53.542Z,14.13
2023-03-04T03:26:20.931Z,15.88
2023-03-04T03:28:48.013Z,14.50
2023-03-04T03:31:15.370Z,11.52
2023-03-04T03:33:47.008Z,12.40
2023-03-04T03:36:13.871Z,15.40
2023-03-04T03:38:40.743Z,14.02
2023-03-04T03:41:07.728Z,12.95
2023-03-04T03:43:34.951Z,12.30
2023-03-04T03:46:01.804Z,14.95
2023-03-04T03:48:28.721Z,12.85
2023-03-04T03:50:55.929Z,12.77
2023-03-04T03:53:23.212Z,13.73
2023-03-04T03:55:50.063Z,13.35
2023-03-04T03:58:16.846Z,13.93
2023-03-04T04:00:44.065Z,13.77
2023-03-04T04:03:17.049Z,14.55
2023-03-04T04:05:44.206Z,19.75
2023-03-04T04:08:15.484Z,14.48
2023-03-04T04:10:43.076Z,16.17
2023-03-04T04:13:10.182Z,18.08
2023-03-04T04:15:38.726Z,16.83
2023-03-04T04:18:07.078Z,13.30
2023-03-04T04:20:34.281Z,13.27
2023-03-04T04:23:01.833Z,16.48
2023-03-04T04:25:28.691Z,20.92
2023-03-04T04:27:56.070Z,16.25
2023-03-04T04:30:23.668Z,19.17
2023-03-04T04:32:50.975Z,16.80
2023-03-04T04:35:17.870Z,16.13
2023-03-04T04:37:45.139Z,18.10
2023-03-04T04:40:12.585Z,15.10
2023-03-04T04:42:39.782Z,17.60
2023-03-04T04:45:07.721Z,14.15
2023-03-04T04:47:34.473Z,16.83
2023-03-04T04:50:01.706Z,15.68
2023-03-04T04:52:28.978Z,14.88
2023-03-04T04:54:56.204Z,14.30
2023-03-04T04:57:23.028Z,13.80
2023-03-04T04:59:50.216Z,15.45
2023-03-04T05:02:17.452Z,12.90
2023-03-04T05:04:44.964Z,16.38
2023-03-04T05:07:11.840Z,15.77
2023-03-04T05:09:39.359Z,13.52
2023-03-04T05:12:06.296Z,15.25
2023-03-04T05:14:33.701Z,16.98
2023-03-04T05:17:00.468Z,16.10
2023-03-04T05:19:27.643Z,14.65
2023-03-04T05:21:54.517Z,13.57
2023-03-04T05:24:21.727Z,19.02
2023-03-04T05:26:48.961Z,14.60
2023-03-04T05:29:16.139Z,14.70
2023-03-04T05:31:44.110Z,16.35
2023-03-04T05:34:11.365Z,18.77
2023-03-04T05:36:38.570Z,13.15
2023-03-04T05:39:05.791Z,15.55
2023-03-04T05:41:33.041Z,18.95
2023-03-04T05:44:00.232Z,18.98
2023-03-04T05:46:27.103Z,20.60
2023-03-04T05:48:54.500Z,17.13
2023-03-04T05:51:22.626Z,15.65
2023-03-04T05:53:50.036Z,18.15
2023-03-04T05:56:18.909Z,14.57
2023-03-04T05:58:49.581Z,13.60
2023-03-04T06:01:16.867Z,17.83
2023-03-04T06:03:43.847Z,14.30
2023-03-04T06:06:11.262Z,11.80
2023-03-04T06:08:38.120Z,15.05
2023-03-04T06:11:05.651Z,13.27
2023-03-04T06:13:33.490Z,15.70
2023-03-04T06:16:01.137Z,17.52
2023-03-04T06:18:28.921Z,15.30
2023-03-04T06:21:00.897Z,18.85
2023-03-04T06:23:28.356Z,20.10
2023-03-04T06:25:56.586Z,18.88
2023-03-04T06:28:23.826Z,16.92
2023-03-04T06:30:54.720Z,17.00
2023-03-04T06:33:22.292Z,19.77
2023-03-04T06:35:49.395Z,13.75
2023-03-04T06:38:16.264Z,17.13
2023-03-04T06:40:44.257Z,20.55
2023-03-04T06:43:11.034Z,20.65
2023-03-04T06:45:39.392Z,19.40
2023-03-04T06:48:06.500Z,18.23
2023-03-04T06:50:33.292Z,18.65
2023-03-04T06:53:00.043Z,19.90
2023-03-04T06:55:26.920Z,17.15
2023-03-04T06:57:54.128Z,19.90
2023-03-04T07:00:21.234Z,17.58
2023-03-04T07:02:48.055Z,19.63
2023-03-04T07:05:15.236Z,20.27
2023-03-04T07:07:42.477Z,23.45
2023-03-04T07:10:10.288Z,22.58
2023-03-04T07:12:37.089Z,17.00
2023-03-04T07:15:04.262Z,17.20
2023-03-04T07:17:31.506Z,20.77
2023-03-04T07:19:58.306Z,20.80
2023-03-04T07:22:25.638Z,18.65
2023-03-04T07:24:52.963Z,14.82
2023-03-04T07:27:20.183Z,19.92
2023-03-04T07:29:47.310Z,19.63
2023-03-04T07:32:14.169Z,23.17
2023-03-04T07:34:40.963Z,20.10
2023-03-04T07:37:08.191Z,17.45
2023-03-04T07:39:34.976Z,22.25
2023-03-04T07:42:01.748Z,18.58
2023-03-04T07:44:28.639Z,27.23
2023-03-04T07:46:55.952Z,29.15
2023-03-04T07:49:23.208Z,20.63
2023-03-04T07:51:50.394Z,22.15
2023-03-04T07:54:20.074Z,25.83
2023-03-04T07:56:47.354Z,19.98
2023-03-04T07:59:14.305Z,17.70
2023-03-04T08:01:45.592Z,24.55
2023-03-04T08:04:12.773Z,23.65
2023-03-04T08:06:41.371Z,21.35
2023-03-04T08:09:10.670Z,21.13
2023-03-04T08:11:38.450Z,22.85
2023-03-04T08:14:06.327Z,20.88
2023-03-04T08:16:33.178Z,17.55
2023-03-04T08:19:02.315Z,21.80
2023-03-04T08:21:29.510Z,19.90
2023-03-04T08:23:59.607Z,23.95
2023-03-04T08:26:29.754Z,24.80
2023-03-04T08:28:57.114Z,23.73
2023-03-04T08:31:24.662Z,24.75
2023-03-04T08:33:53.012Z,26.13
2023-03-04T08:36:20.375Z,27.67
2023-03-04T08:38:47.586Z,24.60
2023-03-04T08:41:15.430Z,22.27
2023-03-04T08:43:42.459Z,24.02
2023-03-04T08:46:09.380Z,24.88
2023-03-04T08:48:37.771Z,26.25
2023-03-04T08:51:10.096Z,25.20
2023-03-04T08:53:38.201Z,26.45
2023-03-04T08:56:05.933Z,26.48
2023-03-04T08:58:32.901Z,27.55
2023-03-04T09:01:01.200Z,28.90
2023-03-04T09:03:28.652Z,37.83
2023-03-04T09:05:56.282Z,25.90
2023-03-04T09:08:23.122Z,29.83
2023-03-04T09:10:52.885Z,32.30
2023-03-04T09:13:19.706Z,30.80
2023-03-04T09:15:48.372Z,27.25
2023-03-04T09:18:16.340Z,32.33
2023-03-04T09:20:43.300Z,25.70
2023-03-04T09:23:10.455Z,24.25
2023-03-04T09:25:38.399Z,26.90
2023-03-04T09:28:06.396Z,30.48
2023-03-04T09:30:34.240Z,24.38
2023-03-04T09:33:01.558Z,24.20
2023-03-04T09:35:29.961Z,27.65
2023-03-04T09:37:58.104Z,24.45
2023-03-04T09:40:30.097Z,24.65
2023-03-04T09:43:03.389Z,36.15
2023-03-04T09:45:41.819Z,21.75
2023-03-04T09:48:15.195Z,29.85
2023-03-04T09:51:09.153Z,26.63
2023-03-04T09:53:48.092Z,23.60
2023-03-04T09:56:15.231Z,22.35
2023-03-04T09:59:02.392Z,22.63
2023-03-04T10:01:34.228Z,18.55
2023-03-04T10:04:20.726Z,27.48
2023-03-04T10:09:29.875Z,21.42
2023-03-04T10:12:06.601Z,19.75
2023-03-04T10:14:38.628Z,25.77
2023-03-04T10:17:18.877Z,17.05
2023-03-04T10:20:06.008Z,19.38
2023-03-04T10:22:37.426Z,23.58
2023-03-04T10:25:24.411Z,24.45
2023-03-04T10:27:59.170Z,21.20
2023-03-04T10:30:38.306Z,26.60
2023-03-04T10:33:27.518Z,25.63
2023-03-04T10:36:01.845Z,23.00
2023-03-04T10:38:39.129Z,24.38
2023-03-04T10:41:16.736Z,25.90
2023-03-04T10:43:49.662Z,25.25
2023-03-04T10:46:16.669Z,22.50
2023-03-04T10:48:44.839Z,24.58
2023-03-04T10:51:11.687Z,26.13
2023-03-04T10:53:41.816Z,21.17
2023-03-04T10:56:33.702Z,24.15
2023-03-04T10:59:31.763Z,18.95
2023-03-04T11:02:13.534Z,23.27
2023-03-04T11:04:40.657Z,25.88
2023-03-04T11:07:11.521Z,17.50
2023-03-04T11:09:40.422Z,25.02
2023-03-04T11:12:13.441Z,26.30
2023-03-04T11:14:49.108Z,19.08
2023-03-04T11:17:40.682Z,18.70
2023-03-04T11:20:16.412Z,19.27
2023-03-04T11:22:46.195Z,20.77
2023-03-04T11:25:27.399Z,19.70
2023-03-04T11:27:58.132Z,16.80
2023-03-04T11:30:36.687Z,18.30
2023-03-04T11:33:32.617Z,16.60
2023-03-04T11:36:28.800Z,18.45
2023-03-04T11:38:57.058Z,21.38
2023-03-04T11:41:32.241Z,18.27
2023-03-04T11:44:00.371Z,22.70
2023-03-04T11:46:59.930Z,22.83
2023-03-04T11:49:47.997Z,19.98
2023-03-04T11:52:33.470Z,18.15
2023-03-04T11:55:35.231Z,17.70
2023-03-04T11:58:26.516Z,18.90
2023-03-04T12:01:10.533Z,22.35
2023-03-04T12:03:55.634Z,22.17
2023-03-04T12:06:31.542Z,21.75
2023-03-04T12:08:58.269Z,21.33
2023-03-04T12:11:49.242Z,17.65
2023-03-04T12:14:37.637Z,18.20
2023-03-04T12:17:23.404Z,22.73
2023-03-04T12:20:24.567Z,18.63
2023-03-04T12:22:54.492Z,17.88
2023-03-04T12:25:42.154Z,20.60
2023-03-04T12:28:37.585Z,19.05
2023-03-04T12:31:19.744Z,14.48
2023-03-04T12:34:06.415Z,22.77
2023-03-04T12:39:48.209Z,18.27
2023-03-04T12:42:49.258Z,20.17
2023-03-04T12:45:25.806Z,19.00
2023-03-04T12:48:05.879Z,17.25
2023-03-04T12:50:46.814Z,18.80
2023-03-04T12:53:34.302Z,20.63
2023-03-04T12:56:04.707Z,21.23
2023-03-04T12:58:33.810Z,22.75
2023-03-04T13:01:07.606Z,25.23
2023-03-04T13:03:58.519Z,23.83
2023-03-04T13:06:43.734Z,23.23
2023-03-04T13:09:32.040Z,22.23
2023-03-04T13:12:20.375Z,20.75
2023-03-04T13:15:07.415Z,23.48
2023-03-04T13:17:44.176Z,19.40
2023-03-04T13:20:36.296Z,18.60
2023-03-04T13:23:07.087Z,22.17
2023-03-04T13:25:40.252Z,22.30
2023-03-04T13:28:09.901Z,23.90
2023-03-04T13:30:38.066Z,19.85
2023-03-04T13:33:10.840Z,22.48
2023-03-04T13:35:47.935Z,24.40
2023-03-04T13:38:25.300Z,20.35
2023-03-04T13:41:16.873Z,25.88
2023-03-04T13:43:55.145Z,23.95
2023-03-04T13:46:24.825Z,27.60
2023-03-04T13:48:51.763Z,19.70
2023-03-04T13:51:41.603Z,19.60
2023-03-04T13:54:28.643Z,21.67
2023-03-04T13:57:01.421Z,16.67
2023-03-04T13:59:42.974Z,20.92
2023-03-04T14:02:20.019Z,16.42
2023-03-04T14:04:57.419Z,23.08
2023-03-04T14:07:33.117Z,17.15
2023-03-04T14:10:07.645Z,18.92
2023-03-04T14:12:48.874Z,19.63
2023-03-04T14:15:42.135Z,17.65
2023-03-04T14:18:12.222Z,16.42
2023-03-04T14:20:48.341Z,14.65
2023-03-04T14:23:35.961Z,20.02
2023-03-04T14:26:14.752Z,19.35
2023-03-04T14:28:45.470Z,14.90
2023-03-04T14:31:18.395Z,14.88
2023-03-04T14:33:48.431Z,17.38
2023-03-04T14:36:21.777Z,13.13
2023-03-04T14:38:58.898Z,16.05
2023-03-04T14:41:35.532Z,14.40
2023-03-04T14:44:29.073Z,17.75
2023-03-04T14:47:07.843Z,14.50
2023-03-04T14:49:37.182Z,18.85
2023-03-04T14:52:04.647Z,13.35
2023-03-04T14:54:38.667Z,14.43
2023-03-04T14:57:26.748Z,18.42
2023-03-04T14:59:54.164Z,19.17
2023-03-04T15:02:35.637Z,16.63
2023-03-04T15:05:16.865Z,17.77
2023-03-04T15:07:49.570Z,16.70
2023-03-04T15:10:22.352Z,16.52
2023-03-04T15:12:55.208Z,18.83
2023-03-04T15:15:34.038Z,16.60
2023-03-04T15:18:15.487Z,19.92
2023-03-04T15:20:42.423Z,21.10
2023-03-04T15:23:14.102Z,19.25
2023-03-04T15:25:40.969Z,20.73
2023-03-04T15:28:16.714Z,18.45
2023-03-04T15:30:43.647Z,16.23
2023-03-04T15:33:12.094Z,19.42
2023-03-04T15:35:39.930Z,19.50
2023-03-04T15:38:07.851Z,14.93
2023-03-04T15:40:39.151Z,24.73
2023-03-04T15:43:06.766Z,15.63
2023-03-04T15:45:36.953Z,17.02
2023-03-04T15:48:08.011Z,19.38
2023-03-04T15:50:38.386Z,16.77
2023-03-04T15:53:10.514Z,17.23
2023-03-04T15:55:37.515Z,19.90
2023-03-04T15:58:04.627Z,23.55
2023-03-04T16:00:32.152Z,19.88
2023-03-04T16:02:59.076Z,16.48
2023-03-04T16:05:26.306Z,16.10
2023-03-04T16:07:53.706Z,16.55
2023-03-04T16:10:30.813Z,14.27
2023-03-04T16:12:58.044Z,17.95
2023-03-04T16:15:27.487Z,16.13
2023-03-04T16:17:54.838Z,17.65
2023-03-04T16:20:24.796Z,16.42
2023-03-04T16:22:55.172Z,19.15
2023-03-04T16:25:23.230Z,23.95
2023-03-04T16:27:52.270Z,17.58
2023-03-04T16:30:25.121Z,19.83
2023-03-04T16:32:52.029Z,17.88
2023-03-04T16:35:20.587Z,18.95
2023-03-04T16:37:47.834Z,18.65
2023-03-04T16:40:19.394Z,20.08
2023-03-04T16:42:46.334Z,15.45
2023-03-04T16:45:31.720Z,17.05
2023-03-04T16:47:58.520Z,17.80
2023-03-04T16:50:28.649Z,17.65
2023-03-04T16:52:56.647Z,15.70
2023-03-04T16:55:28.918Z,21.63
2023-03-04T16:57:57.894Z,18.02
2023-03-04T17:00:27.008Z,14.15
2023-03-04T17:02:59.756Z,15.77
2023-03-04T17:05:29.924Z,14.23
2023-03-04T17:07:57.379Z,16.42
2023-03-04T17:10:24.865Z,12.68
2023-03-04T17:12:52.267Z,19.60
2023-03-04T17:15:19.489Z,12.00
2023-03-04T17:17:46.761Z,11.93
2023-03-04T17:20:16.334Z,12.07
2023-03-04T17:22:43.865Z,13.57
2023-03-04T17:25:12.861Z,15.05
2023-03-04T17:27:40.264Z,12.57
2023-03-04T17:30:11.134Z,14.57
2023-03-04T17:32:40.065Z,14.15
2023-03-04T17:35:08.595Z,11.32
2023-03-04T17:37:36.161Z,12.90
2023-03-04T17:40:08.700Z,18.23
2023-03-04T17:42:35.666Z,10.48
2023-03-04T17:45:02.650Z,11.82
2023-03-04T17:47:29.633Z,17.02
2023-03-04T17:49:56.485Z,11.75
2023-03-04T17:52:23.250Z,9.80
2023-03-04T17:54:50.044Z,16.10
2023-03-04T17:57:16.926Z,16.13
2023-03-04T17:59:43.695Z,13.27
2023-03-04T18:02:16.852Z,12.25
2023-03-04T18:04:45.950Z,14.75
2023-03-04T18:07:13.114Z,10.10
2023-03-04T18:09:40.029Z,10.43
2023-03-04T18:12:07.226Z,10.20
2023-03-04T18:14:34.304Z,13.45
2023-03-04T18:17:01.121Z,12.82
2023-03-04T18:19:27.916Z,14.75
2023-03-04T18:21:54.724Z,11.13
2023-03-04T18:24:21.746Z,14.02
2023-03-04T18:26:48.933Z,10.38
2023-03-04T18:29:16.102Z,13.40
2023-03-04T18:31:43.734Z,12.35
2023-03-04T18:34:11.333Z,11.88
2023-03-04T18:36:38.189Z,11.55
2023-03-04T18:39:07.426Z,13.80
2023-03-04T18:41:34.714Z,12.05
2023-03-04T18:44:01.682Z,11.30
2023-03-04T18:46:36.110Z,12.73
2023-03-04T18:49:06.048Z,12.80
2023-03-04T18:51:34.165Z,16.13
2023-03-04T18:54:01.600Z,12.52
2023-03-04T18:56:38.168Z,13.45
2023-03-04T18:59:10.132Z,16.90
2023-03-04T19:01:37.442Z,15.88
2023-03-04T19:04:05.699Z,12.82
2023-03-04T19:06:33.828Z,27.75
2023-03-04T19:09:01.271Z,12.27
2023-03-04T19:11:29.949Z,15.05
2023-03-04T19:13:57.129Z,15.98
2023-03-04T19:16:24.995Z,11.48
2023-03-04T19:18:53.512Z,15.32
2023-03-04T19:21:20.378Z,13.23
2023-03-04T19:23:47.217Z,14.55
2023-03-04T19:26:15.392Z,13.43
2023-03-04T19:28:42.624Z,15.80
2023-03-04T19:31:11.307Z,21.00
2023-03-04T19:33:39.629Z,11.68
2023-03-04T19:36:07.471Z,12.52
2023-03-04T19:38:35.372Z,17.33
2023-03-04T19:41:13.965Z,14.45
2023-03-04T19:43:41.248Z,14.77
2023-03-04T19:46:10.307Z,13.30
2023-03-04T19:48:38.010Z,14.52
2023-03-04T19:51:12.917Z,15.77
2023-03-04T19:53:39.989Z,17.77
2023-03-04T19:56:07.772Z,14.18
2023-03-04T19:58:35.243Z,14.38
2023-03-04T20:01:02.427Z,16.70
2023-03-04T20:03:29.568Z,19.58
2023-03-04T20:06:07.528Z,18.60
2023-03-04T20:08:37.935Z,17.38
2023-03-04T20:11:12.429Z,17.13
2023-03-04T20:13:39.248Z,14.60
2023-03-04T20:16:11.046Z,17.08
2023-03-04T20:18:38.711Z,15.75
2023-03-04T20:21:06.558Z,12.75
2023-03-04T20:23:33.740Z,15.45
2023-03-04T20:26:00.989Z,13.35
2023-03-04T20:28:28.314Z,12.80
2023-03-04T20:31:12.898Z,14.00
2023-03-04T20:33:39.770Z,13.60
2023-03-04T20:36:06.811Z,12.07
2023-03-04T20:38:33.825Z,14.43
2023-03-04T20:41:00.674Z,17.05
2023-03-04T20:43:28.698Z,14.68
2023-03-04T20:45:55.628Z,14.63
2023-03-04T20:48:22.762Z,16.75
2023-03-04T20:50:49.546Z,22.00
2023-03-04T20:53:16.354Z,20.67
2023-03-04T20:55:43.174Z,16.90
2023-03-04T20:58:10.229Z,14.82
2023-03-04T21:00:38.295Z,20.27
2023-03-04T21:03:05.151Z,19.10
2023-03-04T21:05:32.070Z,13.75
2023-03-04T21:07:59.277Z,15.27
2023-03-04T21:10:26.172Z,17.42
2023-03-04T21:12:53.154Z,13.23
2023-03-04T21:15:19.975Z,19.35
2023-03-04T21:17:46.929Z,15.05
2023-03-04T21:20:15.167Z,19.67
2023-03-04T21:22:41.993Z,16.35
2023-03-04T21:25:09.196Z,14.85
2023-03-04T21:27:42.475Z,17.27
2023-03-04T21:30:11.150Z,12.90
2023-03-04T21:32:38.161Z,16.98
2023-03-04T21:35:05.728Z,18.73
2023-03-04T21:37:32.730Z,18.38
2023-03-04T21:40:01.388Z,13.23
2023-03-04T21:42:28.378Z,17.35
2023-03-04T21:44:55.310Z,24.30
2023-03-04T21:47:22.422Z,14.48
2023-03-04T21:49:49.371Z,12.38
2023-03-04T21:52:18.716Z,13.80
2023-03-04T21:54:45.841Z,15.18
2023-03-04T21:57:14.235Z,15.88
2023-03-04T21:59:41.535Z,17.27
2023-03-04T22:02:20.782Z,13.57
2023-03-04T22:04:48.312Z,13.02
2023-03-04T22:07:15.225Z,19.50
2023-03-04T22:09:42.179Z,15.48
2023-03-04T22:12:09.276Z,14.43
2023-03-04T22:14:36.183Z,16.27
2023-03-04T22:17:03.186Z,15.88
2023-03-04T22:19:32.738Z,14.05
2023-03-04T22:21:59.850Z,19.08
2023-03-04T22:24:27.512Z,18.60
2023-03-04T22:26:56.806Z,18.63
2023-03-04T22:29:23.790Z,16.15
2023-03-04T22:31:51.090Z,19.00
2023-03-04T22:34:18.662Z,16.23
2023-03-04T22:36:47.084Z,14.27
2023-03-04T22:39:16.905Z,14.73
2023-03-04T22:41:43.780Z,19.60
2023-03-04T22:44:10.777Z,19.60
2023-03-04T22:46:39.152Z,15.57
2023-03-04T22:49:11.988Z,16.55
2023-03-04T22:51:43.686Z,14.93
2023-03-04T22:54:18.565Z,18.40
2023-03-04T22:56:45.833Z,17.17
2023-03-04T22:59:13.113Z,20.00
2023-03-04T23:01:40.227Z,17.67
2023-03-04T23:04:07.205Z,16.42
2023-03-04T23:06:34.252Z,16.02
2023-03-04T23:09:01.092Z,17.25
2023-03-04T23:11:30.877Z,18.65
2023-03-04T23:14:02.104Z,16.60
2023-03-04T23:16:29.082Z,20.42
2023-03-04T23:18:59.184Z,17.50
2023-03-04T23:21:28.202Z,18.05
2023-03-04T23:23:55.166Z,18.98
2023-03-04T23:26:24.741Z,18.30
2023-03-04T23:28:51.912Z,14.73
2023-03-04T23:31:18.962Z,16.77
2023-03-04T23:33:47.668Z,18.80
2023-03-04T23:36:16.874Z,14.98
2023-03-04T23:38:45.589Z,17.13
2023-03-04T23:41:21.275Z,16.85
2023-03-04T23:43:49.003Z,20.25
2023-03-04T23:46:15.958Z,16.60
2023-03-04T23:48:46.346Z,21.60
2023-03-04T23:51:20.362Z,15.48
2023-03-04T23:53:47.888Z,15.45
2023-03-04T23:56:17.233Z,18.52
2023-03-04T23:58:44.989Z,16.00
